Time;durP1;ratioP1;P1;durP2;ratioP2;P2;SDS_P1;SDS_P2;PMS_P1;PMS_P2;Temp;Humidity;BMP_temperature;BMP_pressure;BME280_temperature;BME280_humidity;BME280_pressure;Samples;Min_cycle;Max_cycle;Signal;HPM_P1;HPM_P2
2022/01/27 00:01:28;;;;;;;28.25;9.80;;;;;;;;;;5017068;28;20117;-83
2022/01/27 00:06:35;;;;;;;26.10;8.23;;;;;;;;;;5017005;28;20030;-83
2022/01/27 00:09:14;;;;;;;23.63;8.85;;;;;;;;;;5016552;28;20079;-85
2022/01/27 00:11:43;;;;;;;22.05;8.60;;;;;;;;;;5016309;28;20021;-82
2022/01/27 00:14:10;;;;;;;24.45;8.75;;;;;;;;;;4998934;28;20498;-82
2022/01/27 00:16:40;;;;;;;26.35;9.40;;;;;;;;;;4998694;28;20021;-84
2022/01/27 00:19:06;;;;;;;26.25;8.95;;;;;;;;;;4997642;28;20053;-84
2022/01/27 00:21:32;;;;;;;21.52;7.47;;;;;;;;;;5016789;28;20099;-84
2022/01/27 00:23:57;;;;;;;26.13;8.95;;;;;;;;;;4998858;28;20390;-82
2022/01/27 00:26:23;;;;;;;22.75;7.88;;;;;;;;;;4999066;28;20026;-83
2022/01/27 00:28:49;;;;;;;32.40;9.75;;;;;;;;;;5016750;28;20025;-83
2022/01/27 00:31:17;;;;;;;24.63;9.40;;;;;;;;;;5016385;28;20026;-82
2022/01/27 00:33:45;;;;;;;23.15;9.07;;;;;;;;;;4999124;28;20033;-84
2022/01/27 00:36:10;;;;;;;23.40;8.85;;;;;;;;;;5016808;28;20029;-82
2022/01/27 00:38:35;;;;;;;22.17;8.70;;;;;;;;;;5017202;28;20029;-83
2022/01/27 00:41:01;;;;;;;26.90;9.48;;;;;;;;;;5017025;28;20109;-82
2022/01/27 00:43:26;;;;;;;22.88;9.10;;;;;;;;;;5017071;28;20037;-81
2022/01/27 00:45:51;;;;;;;24.65;9.65;;;;;;;;;;5016622;28;20037;-83
2022/01/27 00:48:17;;;;;;;23.52;8.30;;;;;;;;;;4999614;28;20037;-83
2022/01/27 00:50:47;;;;;;;27.27;9.55;;;;;;;;;;5017249;28;20017;-82
2022/01/27 00:56:04;;;;;;;25.05;9.90;;;;;;;;;;5017293;28;20517;-83
2022/01/27 00:58:51;;;;;;;26.55;10.05;;;;;;;;;;4998939;28;20474;-84
2022/01/27 01:01:17;;;;;;;30.73;9.85;;;;;;;;;;5016603;28;20501;-83
2022/01/27 01:03:46;;;;;;;29.80;10.38;;;;;;;;;;5017347;28;20386;-83
2022/01/27 01:16:42;;;;;;;27.67;10.07;;;;;;;;;;5016783;28;20026;-83
2022/01/27 01:19:24;;;;;;;33.45;10.77;;;;;;;;;;4999701;28;20080;-82
2022/01/27 01:29:27;;;;;;;29.70;10.75;;;;;;;;;;5016781;28;20033;-82
2022/01/27 01:30:22;;;;;;;24.77;9.90;;;;;;;;;;5016224;28;20135;-82
2022/01/27 01:32:54;;;;;;;25.85;9.43;;;;;;;;;;5016595;28;20033;-83
2022/01/27 01:35:46;;;;;;;26.58;9.45;;;;;;;;;;5017087;28;20153;-84
2022/01/27 01:38:11;;;;;;;27.98;8.68;;;;;;;;;;5017116;28;20026;-81
2022/01/27 01:40:36;;;;;;;22.83;8.50;;;;;;;;;;4998326;28;20022;-83
2022/01/27 01:43:01;;;;;;;21.63;8.40;;;;;;;;;;5016324;28;20105;-82
2022/01/27 01:45:34;;;;;;;17.40;7.57;;;;;;;;;;4999243;28;20561;-82
2022/01/27 01:47:59;;;;;;;24.00;8.52;;;;;;;;;;5016178;28;20065;-82
2022/01/27 01:50:24;;;;;;;28.58;8.70;;;;;;;;;;4998684;28;20088;-82
2022/01/27 01:52:51;;;;;;;20.70;7.78;;;;;;;;;;4998961;28;20025;-82
2022/01/27 01:55:18;;;;;;;22.80;7.93;;;;;;;;;;4998625;28;20030;-83
2022/01/27 01:57:43;;;;;;;18.92;6.85;;;;;;;;;;5016185;28;20030;-83
2022/01/27 02:00:11;;;;;;;20.95;8.55;;;;;;;;;;4998971;28;20030;-83
2022/01/27 02:02:36;;;;;;;21.05;7.55;;;;;;;;;;5016348;28;20030;-81
2022/01/27 02:05:02;;;;;;;22.67;8.82;;;;;;;;;;4998594;28;20164;-82
2022/01/27 02:07:46;;;;;;;20.20;7.47;;;;;;;;;;4998785;28;20033;-83
2022/01/27 02:10:35;;;;;;;;;;;;;;;;;;4999174;28;20029;-81
2022/01/27 02:18:28;;;;;;;18.75;7.07;;;;;;;;;;5016454;28;20092;-81
2022/01/27 02:20:54;;;;;;;22.75;7.70;;;;;;;;;;5016533;28;20034;-83
2022/01/27 02:23:19;;;;;;;19.23;6.85;;;;;;;;;;4998509;28;20079;-82
2022/01/27 02:25:44;;;;;;;21.50;7.85;;;;;;;;;;5016427;28;20026;-82
2022/01/27 02:28:10;;;;;;;23.83;8.48;;;;;;;;;;5016724;28;20025;-83
2022/01/27 02:30:36;;;;;;;22.65;7.80;;;;;;;;;;5016686;28;20037;-83
2022/01/27 02:33:01;;;;;;;20.75;7.85;;;;;;;;;;5016052;28;20026;-83
2022/01/27 02:35:30;;;;;;;19.50;7.70;;;;;;;;;;5016297;28;20018;-82
2022/01/27 02:37:55;;;;;;;21.42;7.70;;;;;;;;;;5016227;28;20372;-82
2022/01/27 02:40:34;;;;;;;22.17;8.40;;;;;;;;;;5016744;28;20021;-83
2022/01/27 02:43:03;;;;;;;22.13;8.02;;;;;;;;;;5017788;28;20033;-82
2022/01/27 02:45:41;;;;;;;23.67;8.00;;;;;;;;;;5020709;28;20072;-81
2022/01/27 02:48:06;;;;;;;21.90;8.73;;;;;;;;;;5002784;28;20025;-83
2022/01/27 02:50:31;;;;;;;20.63;7.40;;;;;;;;;;5020575;28;20040;-83
2022/01/27 02:52:57;;;;;;;16.58;7.45;;;;;;;;;;5001902;28;20038;-84
2022/01/27 02:55:22;;;;;;;18.63;8.15;;;;;;;;;;5021267;28;20049;-82
2022/01/27 02:57:47;;;;;;;20.10;7.63;;;;;;;;;;5020021;28;20099;-83
2022/01/27 03:00:13;;;;;;;20.00;7.65;;;;;;;;;;5020359;28;20026;-84
2022/01/27 03:02:38;;;;;;;21.92;7.70;;;;;;;;;;5019650;28;20030;-83
2022/01/27 03:05:04;;;;;;;22.75;8.85;;;;;;;;;;5019694;28;20387;-84
2022/01/27 03:07:29;;;;;;;22.83;9.25;;;;;;;;;;5019666;28;20026;-83
2022/01/27 03:09:55;;;;;;;23.35;8.57;;;;;;;;;;5019653;28;20053;-83
2022/01/27 03:12:24;;;;;;;26.50;8.60;;;;;;;;;;5019602;28;20026;-83
2022/01/27 03:14:49;;;;;;;24.25;8.18;;;;;;;;;;5021655;28;20399;-82
2022/01/27 03:17:15;;;;;;;19.73;7.78;;;;;;;;;;5001829;28;20051;-83
2022/01/27 03:19:41;;;;;;;19.35;7.68;;;;;;;;;;5019085;28;20038;-83
2022/01/27 03:22:07;;;;;;;21.10;7.50;;;;;;;;;;5001828;28;20108;-82
2022/01/27 03:24:32;;;;;;;19.92;7.50;;;;;;;;;;5001169;28;20032;-82
2022/01/27 03:26:59;;;;;;;21.05;8.07;;;;;;;;;;5019388;28;20498;-82
2022/01/27 03:29:25;;;;;;;20.52;7.88;;;;;;;;;;5018610;28;20064;-82
2022/01/27 03:31:50;;;;;;;20.60;7.80;;;;;;;;;;5018685;28;20108;-82
2022/01/27 03:34:16;;;;;;;20.42;7.85;;;;;;;;;;5018729;28;20058;-83
2022/01/27 03:36:42;;;;;;;20.00;7.18;;;;;;;;;;5001292;28;20052;-83
2022/01/27 03:39:09;;;;;;;18.85;7.55;;;;;;;;;;5001130;28;20026;-83
2022/01/27 03:41:36;;;;;;;22.05;7.60;;;;;;;;;;5000829;28;20029;-82
2022/01/27 03:44:02;;;;;;;20.40;7.90;;;;;;;;;;5018363;28;20075;-84
2022/01/27 03:46:28;;;;;;;16.77;7.30;;;;;;;;;;5018873;28;20060;-82
2022/01/27 03:48:53;;;;;;;21.95;7.93;;;;;;;;;;5019637;28;20026;-82
2022/01/27 03:51:19;;;;;;;21.70;7.00;;;;;;;;;;5018856;28;20457;-83
2022/01/27 03:53:44;;;;;;;16.88;7.10;;;;;;;;;;5018521;28;20467;-82
2022/01/27 03:56:09;;;;;;;18.92;7.13;;;;;;;;;;5001497;28;20084;-82
2022/01/27 03:58:34;;;;;;;21.45;7.97;;;;;;;;;;5019995;28;20026;-81
2022/01/27 04:01:02;;;;;;;19.27;7.60;;;;;;;;;;5018999;28;20502;-83
2022/01/27 04:03:30;;;;;;;18.33;7.35;;;;;;;;;;5001371;28;20022;-83
2022/01/27 04:06:03;;;;;;;21.92;8.30;;;;;;;;;;5018548;28;20075;-83
2022/01/27 04:08:31;;;;;;;25.17;8.75;;;;;;;;;;5018823;28;20030;-83
2022/01/27 04:10:56;;;;;;;19.20;7.68;;;;;;;;;;5021276;28;20505;-83
2022/01/27 04:13:21;;;;;;;22.90;8.30;;;;;;;;;;5018784;28;20025;-82
2022/01/27 04:15:47;;;;;;;19.92;7.60;;;;;;;;;;5018592;28;20080;-81
2022/01/27 04:18:13;;;;;;;23.80;8.10;;;;;;;;;;5018430;28;20076;-82
2022/01/27 04:20:39;;;;;;;22.90;8.23;;;;;;;;;;5017791;28;20032;-82
2022/01/27 04:23:05;;;;;;;21.25;7.95;;;;;;;;;;5017697;28;20034;-83
2022/01/27 04:25:32;;;;;;;21.65;8.07;;;;;;;;;;5000153;28;20445;-83
2022/01/27 04:28:02;;;;;;;25.23;7.72;;;;;;;;;;5018418;28;20026;-84
2022/01/27 04:30:27;;;;;;;23.17;7.75;;;;;;;;;;5000886;28;20479;-84
2022/01/27 04:32:55;;;;;;;21.20;7.85;;;;;;;;;;5018615;28;20028;-83
2022/01/27 04:35:23;;;;;;;23.45;8.43;;;;;;;;;;5017068;28;20053;-83
2022/01/27 04:40:41;;;;;;;15.73;6.70;;;;;;;;;;5018133;28;20033;-83
2022/01/27 04:43:17;;;;;;;19.50;7.50;;;;;;;;;;4999770;28;20383;-83
2022/01/27 04:45:51;;;;;;;21.45;7.22;;;;;;;;;;5016754;28;20559;-84
2022/01/27 04:48:20;;;;;;;20.25;7.22;;;;;;;;;;5016924;28;20034;-83
2022/01/27 04:50:45;;;;;;;19.77;7.57;;;;;;;;;;4999184;28;20050;-82
2022/01/27 04:53:18;;;;;;;24.40;8.20;;;;;;;;;;5016581;28;20026;-83
2022/01/27 04:55:43;;;;;;;20.38;7.53;;;;;;;;;;4999590;28;20091;-82
2022/01/27 04:58:14;;;;;;;14.23;6.10;;;;;;;;;;5016494;28;20484;-83
2022/01/27 05:00:39;;;;;;;21.85;7.63;;;;;;;;;;4998478;28;20036;-82
2022/01/27 05:03:15;;;;;;;18.90;6.65;;;;;;;;;;4998952;28;20025;-82
2022/01/27 05:05:40;;;;;;;20.08;7.70;;;;;;;;;;5015323;28;20386;-83
2022/01/27 05:08:09;;;;;;;20.25;8.38;;;;;;;;;;5016098;28;20018;-83
2022/01/27 05:10:35;;;;;;;19.92;7.38;;;;;;;;;;5016243;28;20025;-82
2022/01/27 05:13:09;;;;;;;19.83;8.05;;;;;;;;;;4999081;28;20025;-83
2022/01/27 05:15:41;;;;;;;16.75;6.03;;;;;;;;;;5017057;28;20502;-82
2022/01/27 05:18:07;;;;;;;17.25;6.18;;;;;;;;;;5016389;28;20402;-83
2022/01/27 05:20:32;;;;;;;17.17;7.07;;;;;;;;;;5016295;28;20101;-84
2022/01/27 05:22:58;;;;;;;23.35;7.28;;;;;;;;;;4998549;28;20442;-83
2022/01/27 05:25:23;;;;;;;19.77;6.75;;;;;;;;;;5016846;28;20109;-83
2022/01/27 05:27:49;;;;;;;17.42;6.55;;;;;;;;;;5016590;28;20108;-82
2022/01/27 05:30:14;;;;;;;19.02;6.75;;;;;;;;;;5017542;28;20022;-81
2022/01/27 05:32:39;;;;;;;18.52;7.15;;;;;;;;;;4998834;28;20032;-83
2022/01/27 05:35:04;;;;;;;17.50;6.85;;;;;;;;;;5017738;28;20034;-83
2022/01/27 05:37:30;;;;;;;16.58;6.55;;;;;;;;;;5018525;28;20048;-83
2022/01/27 05:39:55;;;;;;;17.23;7.35;;;;;;;;;;5017019;28;20030;-82
2022/01/27 05:42:20;;;;;;;13.65;5.95;;;;;;;;;;5017719;28;20088;-83
2022/01/27 05:44:48;;;;;;;18.60;6.43;;;;;;;;;;5016213;28;20030;-82
2022/01/27 05:47:14;;;;;;;18.10;6.40;;;;;;;;;;4999217;28;20036;-84
2022/01/27 05:49:40;;;;;;;19.48;6.95;;;;;;;;;;4999253;28;20109;-82
2022/01/27 05:52:05;;;;;;;16.10;6.78;;;;;;;;;;5017128;28;20037;-82
2022/01/27 05:54:33;;;;;;;15.77;6.28;;;;;;;;;;5018139;28;20026;-81
2022/01/27 05:56:59;;;;;;;14.70;6.07;;;;;;;;;;5017418;28;20026;-81
2022/01/27 05:59:24;;;;;;;17.70;6.15;;;;;;;;;;5017719;28;20076;-81
2022/01/27 06:01:49;;;;;;;12.43;6.05;;;;;;;;;;5016908;28;20113;-82
2022/01/27 06:04:14;;;;;;;15.95;6.18;;;;;;;;;;5016821;28;20068;-84
2022/01/27 06:06:40;;;;;;;14.25;6.10;;;;;;;;;;5016833;28;20389;-83
2022/01/27 06:09:05;;;;;;;14.13;6.30;;;;;;;;;;4999737;28;20033;-83
2022/01/27 06:11:30;;;;;;;14.90;6.43;;;;;;;;;;5003029;28;20093;-81
2022/01/27 06:13:56;;;;;;;16.52;6.47;;;;;;;;;;5018942;28;20034;-82
2022/01/27 06:16:21;;;;;;;12.55;5.97;;;;;;;;;;5018349;28;20021;-85
2022/01/27 06:18:47;;;;;;;11.27;5.50;;;;;;;;;;5021378;28;20101;-83
2022/01/27 06:21:13;;;;;;;10.82;5.72;;;;;;;;;;5003439;28;20022;-83
2022/01/27 06:23:38;;;;;;;12.48;6.22;;;;;;;;;;5003684;28;20032;-84
2022/01/27 06:26:04;;;;;;;10.52;5.45;;;;;;;;;;5020002;28;20395;-80
2022/01/27 06:28:30;;;;;;;10.88;5.82;;;;;;;;;;5020723;28;20021;-81
2022/01/27 06:30:58;;;;;;;15.40;5.53;;;;;;;;;;5022455;28;20475;-82
2022/01/27 06:33:23;;;;;;;10.93;5.60;;;;;;;;;;5022752;28;20088;-83
2022/01/27 06:35:48;;;;;;;13.77;6.07;;;;;;;;;;5021938;28;20033;-83
2022/01/27 06:38:14;;;;;;;15.82;7.45;;;;;;;;;;5021002;28;20313;-82
2022/01/27 06:40:39;;;;;;;11.82;5.30;;;;;;;;;;5003265;28;20026;-83
2022/01/27 06:43:04;;;;;;;10.73;5.97;;;;;;;;;;5002710;28;20101;-84
2022/01/27 06:45:29;;;;;;;7.75;3.40;;;;;;;;;;5021536;28;20048;-82
2022/01/27 06:47:55;;;;;;;12.38;5.75;;;;;;;;;;5003039;28;20474;-82
2022/01/27 06:50:20;;;;;;;13.43;6.15;;;;;;;;;;5020855;28;20032;-83
2022/01/27 06:52:45;;;;;;;14.32;6.32;;;;;;;;;;5020278;28;20022;-82
2022/01/27 06:55:12;;;;;;;12.63;5.70;;;;;;;;;;5020132;28;20025;-83
2022/01/27 06:57:37;;;;;;;11.25;6.00;;;;;;;;;;5021929;28;20028;-84
2022/01/27 07:00:08;;;;;;;11.50;6.13;;;;;;;;;;5003293;28;20469;-83
2022/01/27 07:02:33;;;;;;;13.30;6.50;;;;;;;;;;5021144;28;20395;-84
2022/01/27 07:04:59;;;;;;;14.15;6.07;;;;;;;;;;5021706;28;20035;-84
2022/01/27 07:07:24;;;;;;;12.13;5.78;;;;;;;;;;5003386;28;20033;-83
2022/01/27 07:09:49;;;;;;;14.98;6.15;;;;;;;;;;5019869;28;20502;-84
2022/01/27 07:12:15;;;;;;;11.55;5.72;;;;;;;;;;5002264;28;20025;-83
2022/01/27 07:14:40;;;;;;;13.02;6.32;;;;;;;;;;5020430;28;20030;-83
2022/01/27 07:17:05;;;;;;;14.13;6.60;;;;;;;;;;5002707;28;20061;-82
2022/01/27 07:19:31;;;;;;;12.88;6.75;;;;;;;;;;5004007;28;20030;-83
2022/01/27 07:21:56;;;;;;;11.93;6.15;;;;;;;;;;5021285;28;20053;-84
2022/01/27 07:24:25;;;;;;;8.25;4.47;;;;;;;;;;5021440;28;20042;-82
2022/01/27 07:26:50;;;;;;;10.90;6.10;;;;;;;;;;5019687;28;20021;-83
2022/01/27 07:29:15;;;;;;;13.00;5.63;;;;;;;;;;5019958;28;20022;-82
2022/01/27 07:31:41;;;;;;;13.48;6.13;;;;;;;;;;5019929;28;20107;-83
2022/01/27 07:34:06;;;;;;;5.57;3.38;;;;;;;;;;5002587;28;20049;-82
2022/01/27 07:36:32;;;;;;;12.40;6.70;;;;;;;;;;5003348;28;20022;-83
2022/01/27 07:38:58;;;;;;;11.90;6.07;;;;;;;;;;5002293;28;20113;-84
2022/01/27 07:41:24;;;;;;;13.15;6.47;;;;;;;;;;5020654;28;20078;-83
2022/01/27 07:43:49;;;;;;;12.38;5.70;;;;;;;;;;5001914;28;20060;-83
2022/01/27 07:46:15;;;;;;;11.60;6.03;;;;;;;;;;5020676;28;20068;-83
2022/01/27 07:48:40;;;;;;;11.70;5.82;;;;;;;;;;5002956;28;20017;-83
2022/01/27 07:51:07;;;;;;;13.38;6.90;;;;;;;;;;5002594;28;20022;-83
2022/01/27 07:53:34;;;;;;;11.77;6.38;;;;;;;;;;5020963;28;20033;-84
2022/01/27 07:56:01;;;;;;;14.60;6.30;;;;;;;;;;5003285;28;20117;-78
2022/01/27 07:58:27;;;;;;;13.15;6.65;;;;;;;;;;4998903;28;20033;-78
2022/01/27 08:00:52;;;;;;;10.70;6.20;;;;;;;;;;5016542;28;20022;-77
2022/01/27 08:03:17;;;;;;;10.18;5.32;;;;;;;;;;5015674;28;20029;-78
2022/01/27 08:05:48;;;;;;;12.18;6.82;;;;;;;;;;5019361;28;20026;-81
2022/01/27 08:08:13;;;;;;;9.30;4.43;;;;;;;;;;4998451;28;20030;-77
2022/01/27 08:10:38;;;;;;;14.05;6.75;;;;;;;;;;5015932;28;20028;-78
2022/01/27 08:13:05;;;;;;;10.82;5.93;;;;;;;;;;5015519;28;20029;-76
2022/01/27 08:15:31;;;;;;;12.35;6.43;;;;;;;;;;5015809;28;20030;-76
2022/01/27 08:17:57;;;;;;;13.68;6.63;;;;;;;;;;4997508;28;20080;-77
2022/01/27 08:20:22;;;;;;;9.88;5.75;;;;;;;;;;5017667;28;20034;-80
2022/01/27 08:22:50;;;;;;;12.63;6.32;;;;;;;;;;5017183;28;20026;-80
2022/01/27 08:25:15;;;;;;;16.38;6.55;;;;;;;;;;4999683;28;20040;-82
2022/01/27 08:27:44;;;;;;;13.32;6.85;;;;;;;;;;5018041;28;20026;-81
2022/01/27 08:30:11;;;;;;;12.77;6.80;;;;;;;;;;5018786;28;20036;-83
2022/01/27 08:32:46;;;;;;;11.95;5.97;;;;;;;;;;5019259;28;20036;-81
2022/01/27 08:35:14;;;;;;;12.57;6.25;;;;;;;;;;5019390;28;20026;-81
2022/01/27 08:37:39;;;;;;;13.57;6.78;;;;;;;;;;5020544;28;20033;-83
2022/01/27 08:40:06;;;;;;;14.32;6.75;;;;;;;;;;5020031;28;20057;-81
2022/01/27 08:42:31;;;;;;;12.48;6.43;;;;;;;;;;5000490;28;20057;-80
2022/01/27 08:44:56;;;;;;;11.48;6.30;;;;;;;;;;5000515;28;20093;-83
2022/01/27 08:47:24;;;;;;;12.95;6.30;;;;;;;;;;5018738;28;20032;-82
2022/01/27 08:49:49;;;;;;;24.10;6.60;;;;;;;;;;5018894;28;20096;-82
2022/01/27 08:52:15;;;;;;;11.88;6.72;;;;;;;;;;5017817;28;20028;-82
2022/01/27 08:54:42;;;;;;;10.25;5.88;;;;;;;;;;5018395;28;20402;-81
2022/01/27 08:57:07;;;;;;;12.32;6.53;;;;;;;;;;5019768;28;20080;-80
2022/01/27 08:59:33;;;;;;;13.93;7.00;;;;;;;;;;5019689;28;20033;-82
2022/01/27 09:01:59;;;;;;;11.75;6.50;;;;;;;;;;5018845;28;20112;-79
2022/01/27 09:04:24;;;;;;;11.95;6.57;;;;;;;;;;5019949;28;20038;-82
2022/01/27 09:06:49;;;;;;;13.00;6.38;;;;;;;;;;5019937;28;20032;-82
2022/01/27 09:09:14;;;;;;;14.63;6.95;;;;;;;;;;5001360;28;20112;-81
2022/01/27 09:11:43;;;;;;;11.52;6.28;;;;;;;;;;5019434;28;20423;-82
2022/01/27 09:14:09;;;;;;;11.02;6.18;;;;;;;;;;5017320;28;20018;-81
2022/01/27 09:16:35;;;;;;;11.68;6.53;;;;;;;;;;5018920;28;20403;-80
2022/01/27 09:19:01;;;;;;;13.85;6.20;;;;;;;;;;5018937;28;20022;-80
2022/01/27 09:21:37;;;;;;;10.07;5.93;;;;;;;;;;5018624;28;20033;-80
2022/01/27 09:24:03;;;;;;;16.13;6.72;;;;;;;;;;5017568;28;20018;-81
2022/01/27 09:29:05;;;;;;;8.77;4.35;;;;;;;;;;5019535;28;20393;-81
2022/01/27 09:31:31;;;;;;;12.93;6.70;;;;;;;;;;5001846;28;20038;-83
2022/01/27 09:33:56;;;;;;;11.93;6.60;;;;;;;;;;5002570;28;20112;-82
2022/01/27 09:36:21;;;;;;;12.88;6.28;;;;;;;;;;5019406;28;20401;-80
2022/01/27 09:38:47;;;;;;;11.98;6.35;;;;;;;;;;5020180;28;20033;-81
2022/01/27 09:41:18;;;;;;;10.60;5.65;;;;;;;;;;5019787;28;20026;-81
2022/01/27 09:43:44;;;;;;;10.82;6.35;;;;;;;;;;5018427;28;20101;-81
2022/01/27 09:46:11;;;;;;;15.27;6.63;;;;;;;;;;5000896;28;20064;-83
2022/01/27 09:48:41;;;;;;;12.45;6.10;;;;;;;;;;5018939;28;20097;-79
2022/01/27 09:53:52;;;;;;;10.93;6.30;;;;;;;;;;5017619;28;20068;-80
2022/01/27 09:56:18;;;;;;;10.70;6.10;;;;;;;;;;5020721;28;20062;-82
2022/01/27 09:58:44;;;;;;;11.77;5.50;;;;;;;;;;5018565;28;20034;-80
2022/01/27 10:01:09;;;;;;;12.20;6.47;;;;;;;;;;5019315;28;20033;-81
2022/01/27 10:03:51;;;;;;;12.85;6.75;;;;;;;;;;5019954;28;20025;-82
2022/01/27 10:06:18;;;;;;;12.55;6.38;;;;;;;;;;5019297;28;20021;-81
2022/01/27 10:09:08;;;;;;;13.00;6.75;;;;;;;;;;5016559;28;20033;-81
2022/01/27 10:11:33;;;;;;;12.63;6.75;;;;;;;;;;5000024;28;20022;-80
2022/01/27 10:13:59;;;;;;;13.10;6.97;;;;;;;;;;5000492;28;20030;-80
2022/01/27 10:16:34;;;;;;;12.93;6.68;;;;;;;;;;5018720;28;20029;-80
2022/01/27 10:19:04;;;;;;;16.00;7.22;;;;;;;;;;5018831;28;20056;-82
2022/01/27 10:21:31;;;;;;;16.67;6.93;;;;;;;;;;5001407;28;20037;-81
2022/01/27 10:23:57;;;;;;;14.65;6.97;;;;;;;;;;5008022;28;20022;-82
2022/01/27 10:26:25;;;;;;;14.13;7.10;;;;;;;;;;5032031;28;20025;-80
2022/01/27 10:29:07;;;;;;;16.15;8.07;;;;;;;;;;5038267;28;20022;-79
2022/01/27 10:31:32;;;;;;;11.20;5.28;;;;;;;;;;5036879;28;20026;-81
2022/01/27 10:34:04;;;;;;;13.00;6.43;;;;;;;;;;5031482;28;20012;-81
2022/01/27 10:36:40;;;;;;;17.02;7.93;;;;;;;;;;5031200;28;20033;-81
2022/01/27 10:39:12;;;;;;;9.82;5.45;;;;;;;;;;5033871;28;20033;-79
2022/01/27 10:41:54;;;;;;;16.60;7.65;;;;;;;;;;5016488;28;20137;-81
2022/01/27 10:44:19;;;;;;;15.35;7.95;;;;;;;;;;5016131;28;20491;-81
2022/01/27 10:47:18;;;;;;;13.93;6.85;;;;;;;;;;5032879;28;20049;-81
2022/01/27 10:49:51;;;;;;;13.80;7.25;;;;;;;;;;5023271;28;20056;-80
2022/01/27 10:52:27;;;;;;;14.57;6.67;;;;;;;;;;5027196;28;20034;-80
2022/01/27 10:55:04;;;;;;;16.20;7.22;;;;;;;;;;5001949;28;20121;-80
2022/01/27 10:57:30;;;;;;;15.32;7.13;;;;;;;;;;5019181;28;20021;-79
2022/01/27 11:00:16;;;;;;;15.57;7.32;;;;;;;;;;5021247;28;20443;-80
2022/01/27 11:02:52;;;;;;;14.20;7.30;;;;;;;;;;5024881;28;20049;-81
2022/01/27 11:05:22;;;;;;;15.57;7.28;;;;;;;;;;5032982;28;20025;-81
2022/01/27 11:07:48;;;;;;;14.68;6.38;;;;;;;;;;5037305;28;20085;-81
2022/01/27 11:10:15;;;;;;;11.82;6.57;;;;;;;;;;5036004;28;20037;-82
2022/01/27 11:12:42;;;;;;;14.57;6.05;;;;;;;;;;5020146;28;20002;-82
2022/01/27 11:15:10;;;;;;;13.95;6.55;;;;;;;;;;5036855;28;20046;-81
2022/01/27 11:17:37;;;;;;;14.25;7.05;;;;;;;;;;5037366;28;20026;-82
2022/01/27 11:27:50;;;;;;;13.88;6.60;;;;;;;;;;5037279;28;20064;-82
2022/01/27 11:30:54;;;;;;;13.93;7.10;;;;;;;;;;5038201;28;20052;-80
2022/01/27 11:33:30;;;;;;;14.40;6.25;;;;;;;;;;5027838;28;20099;-84
2022/01/27 11:36:06;;;;;;;13.70;6.60;;;;;;;;;;5004800;28;20025;-81
2022/01/27 11:38:32;;;;;;;16.83;6.90;;;;;;;;;;5004986;28;20097;-82
2022/01/27 11:40:57;;;;;;;11.32;6.10;;;;;;;;;;5022117;28;20089;-82
2022/01/27 11:43:33;;;;;;;14.60;6.90;;;;;;;;;;5022813;28;20065;-82
2022/01/27 11:46:11;;;;;;;12.93;6.20;;;;;;;;;;5004049;28;20066;-82
2022/01/27 11:48:36;;;;;;;16.20;6.75;;;;;;;;;;5022708;28;20026;-82
2022/01/27 11:51:07;;;;;;;16.65;7.35;;;;;;;;;;5021766;28;20025;-82
2022/01/27 11:53:45;;;;;;;13.38;6.63;;;;;;;;;;5021785;28;20034;-81
2022/01/27 11:56:23;;;;;;;14.70;7.13;;;;;;;;;;5005071;28;20026;-81
2022/01/27 11:59:05;;;;;;;12.73;6.07;;;;;;;;;;5022621;28;20387;-84
2022/01/27 12:01:34;;;;;;;13.18;5.82;;;;;;;;;;5005014;28;20454;-82
2022/01/27 12:04:02;;;;;;;15.55;6.75;;;;;;;;;;5022005;28;20025;-83
2022/01/27 12:06:28;;;;;;;12.27;6.35;;;;;;;;;;5022844;28;20026;-82
2022/01/27 12:09:19;;;;;;;14.77;6.97;;;;;;;;;;5021993;28;20049;-83
2022/01/27 12:11:48;;;;;;;12.65;6.75;;;;;;;;;;5005847;28;20026;-83
2022/01/27 12:14:15;;;;;;;12.65;6.32;;;;;;;;;;5023031;28;20029;-80
2022/01/27 12:16:54;;;;;;;14.90;7.32;;;;;;;;;;5020959;28;20047;-83
2022/01/27 12:19:19;;;;;;;11.77;5.93;;;;;;;;;;5023315;28;20034;-80
2022/01/27 12:21:51;;;;;;;14.15;6.50;;;;;;;;;;5022389;28;20479;-81
2022/01/27 12:24:27;;;;;;;16.33;7.43;;;;;;;;;;5005248;28;20026;-80
2022/01/27 12:27:04;;;;;;;16.25;7.50;;;;;;;;;;5021699;28;20101;-83
2022/01/27 12:29:35;;;;;;;14.48;6.90;;;;;;;;;;5022507;28;20041;-82
2022/01/27 12:32:07;;;;;;;15.95;6.88;;;;;;;;;;5004678;28;20026;-81
2022/01/27 12:34:33;;;;;;;14.13;6.85;;;;;;;;;;5021875;28;20034;-82
2022/01/27 12:37:03;;;;;;;8.73;4.60;;;;;;;;;;5022588;28;20427;-82
2022/01/27 12:39:34;;;;;;;13.70;6.88;;;;;;;;;;5004254;28;20026;-81
2022/01/27 12:42:06;;;;;;;15.30;6.53;;;;;;;;;;5005463;28;20081;-82
2022/01/27 12:44:32;;;;;;;12.55;6.32;;;;;;;;;;5021498;28;20030;-83
2022/01/27 12:47:08;;;;;;;13.98;7.05;;;;;;;;;;5004666;28;20033;-81
2022/01/27 12:49:39;;;;;;;14.23;6.97;;;;;;;;;;5004812;28;20113;-81
2022/01/27 12:52:07;;;;;;;12.05;6.28;;;;;;;;;;5005110;28;20045;-82
2022/01/27 12:54:34;;;;;;;11.73;6.03;;;;;;;;;;5021974;28;20506;-81
2022/01/27 12:56:59;;;;;;;15.10;6.90;;;;;;;;;;5005323;28;20041;-82
2022/01/27 12:59:42;;;;;;;15.95;6.95;;;;;;;;;;5005147;28;20379;-82
2022/01/27 13:02:09;;;;;;;14.27;6.90;;;;;;;;;;5022587;28;20049;-80
2022/01/27 13:04:36;;;;;;;13.85;6.57;;;;;;;;;;5003339;28;20510;-81
2022/01/27 13:07:05;;;;;;;14.23;6.90;;;;;;;;;;5022896;28;20030;-81
2022/01/27 13:09:33;;;;;;;14.65;6.95;;;;;;;;;;5004197;28;20025;-82
2022/01/27 13:12:09;;;;;;;12.15;5.63;;;;;;;;;;5021490;28;20022;-82
2022/01/27 13:14:34;;;;;;;12.10;6.18;;;;;;;;;;5020798;28;20049;-81
2022/01/27 13:17:07;;;;;;;12.40;5.88;;;;;;;;;;5003240;28;20030;-81
2022/01/27 13:19:41;;;;;;;13.38;6.53;;;;;;;;;;5019992;28;20025;-81
2022/01/27 13:22:09;;;;;;;13.27;6.25;;;;;;;;;;5003542;28;20049;-81
2022/01/27 13:24:50;;;;;;;10.93;4.57;;;;;;;;;;5002717;28;20101;-81
2022/01/27 13:27:15;;;;;;;13.93;6.53;;;;;;;;;;5003219;28;20032;-81
2022/01/27 13:29:43;;;;;;;13.55;6.00;;;;;;;;;;5003305;28;20116;-82
2022/01/27 13:32:09;;;;;;;14.90;6.35;;;;;;;;;;5020477;28;20030;-81
2022/01/27 13:34:39;;;;;;;10.90;5.93;;;;;;;;;;5019058;28;20029;-80
2022/01/27 13:37:05;;;;;;;10.32;5.28;;;;;;;;;;5019331;28;20192;-81
2022/01/27 13:39:47;;;;;;;10.52;5.55;;;;;;;;;;5018759;28;20510;-82
2022/01/27 13:42:13;;;;;;;10.40;5.35;;;;;;;;;;5002017;28;20441;-79
2022/01/27 13:44:59;;;;;;;11.60;5.22;;;;;;;;;;5001112;28;20026;-81
2022/01/27 13:47:26;;;;;;;14.48;5.80;;;;;;;;;;5018574;28;20175;-82
2022/01/27 13:49:52;;;;;;;12.30;5.93;;;;;;;;;;4999082;28;20152;-82
2022/01/27 13:52:18;;;;;;;10.07;5.35;;;;;;;;;;5017045;28;20084;-81
2022/01/27 13:54:49;;;;;;;12.02;5.47;;;;;;;;;;5017596;28;20022;-82
2022/01/27 13:57:22;;;;;;;9.20;3.88;;;;;;;;;;4999997;28;20037;-81
2022/01/27 14:00:01;;;;;;;9.13;4.78;;;;;;;;;;5017641;28;20034;-81
2022/01/27 14:02:35;;;;;;;8.20;4.43;;;;;;;;;;5000104;28;20029;-82
2022/01/27 14:05:13;;;;;;;10.02;4.78;;;;;;;;;;5017426;28;20475;-77
2022/01/27 14:07:40;;;;;;;11.07;5.15;;;;;;;;;;5002325;28;20026;-81
2022/01/27 14:10:08;;;;;;;11.98;5.18;;;;;;;;;;4998758;28;20455;-81
2022/01/27 14:13:17;;;;;;;11.20;5.05;;;;;;;;;;4999905;28;20364;-82
2022/01/27 14:15:55;;;;;;;11.35;5.45;;;;;;;;;;4998141;28;20084;-80
2022/01/27 14:18:26;;;;;;;7.85;4.32;;;;;;;;;;4997880;28;20026;-81
2022/01/27 14:20:55;;;;;;;10.90;5.03;;;;;;;;;;5015923;28;20490;-81
2022/01/27 14:29:01;;;;;;;8.88;4.70;;;;;;;;;;5016483;28;20041;-80
2022/01/27 14:31:26;;;;;;;9.70;4.07;;;;;;;;;;4998563;28;20026;-80
2022/01/27 14:33:52;;;;;;;10.60;4.63;;;;;;;;;;4998039;28;20022;-80
2022/01/27 14:36:18;;;;;;;7.50;3.85;;;;;;;;;;5018853;28;20034;-80
2022/01/27 14:38:44;;;;;;;8.82;3.80;;;;;;;;;;5002128;28;20541;-81
2022/01/27 14:41:10;;;;;;;7.00;3.63;;;;;;;;;;5002137;28;20051;-82
2022/01/27 14:43:38;;;;;;;8.52;3.60;;;;;;;;;;5019012;28;20044;-80
2022/01/27 14:46:05;;;;;;;7.18;3.40;;;;;;;;;;5020987;28;20037;-81
2022/01/27 14:48:34;;;;;;;7.53;3.85;;;;;;;;;;5022159;28;20030;-79
2022/01/27 14:50:59;;;;;;;7.18;3.70;;;;;;;;;;5004180;28;20042;-79
2022/01/27 14:53:24;;;;;;;8.32;4.10;;;;;;;;;;5021984;28;20079;-79
2022/01/27 14:55:50;;;;;;;8.50;3.80;;;;;;;;;;5004457;28;20067;-80
2022/01/27 14:58:15;;;;;;;6.93;3.58;;;;;;;;;;5021797;28;20034;-80
2022/01/27 15:00:40;;;;;;;8.52;3.80;;;;;;;;;;5003290;28;20030;-80
2022/01/27 15:03:06;;;;;;;8.00;3.90;;;;;;;;;;5021714;28;20471;-81
2022/01/27 15:05:31;;;;;;;6.35;3.65;;;;;;;;;;5004135;28;20025;-81
2022/01/27 15:07:56;;;;;;;7.20;3.63;;;;;;;;;;5019713;28;20024;-81
2022/01/27 15:10:22;;;;;;;5.90;3.00;;;;;;;;;;5019288;28;20032;-80
2022/01/27 15:12:50;;;;;;;6.25;3.40;;;;;;;;;;5019128;28;20185;-82
2022/01/27 15:20:43;;;;;;;6.57;3.22;;;;;;;;;;5020902;28;20044;-81
2022/01/27 15:23:10;;;;;;;5.70;3.03;;;;;;;;;;5019218;28;20026;-81
2022/01/27 15:25:35;;;;;;;5.78;3.13;;;;;;;;;;5001606;28;20104;-82
2022/01/27 15:28:02;;;;;;;8.55;3.70;;;;;;;;;;5000924;28;20080;-81
2022/01/27 15:30:29;;;;;;;6.07;3.15;;;;;;;;;;5018999;28;20033;-82
2022/01/27 15:32:55;;;;;;;7.05;3.58;;;;;;;;;;5018990;28;20022;-80